createdAt,value
2023-08-06T00:01:47.933Z,6.70
2023-08-06T00:06:55.668Z,3.00
2023-08-06T00:12:03.579Z,4.20
2023-08-06T00:17:11.858Z,4.20
2023-08-06T00:22:20.112Z,5.80
2023-08-06T00:27:27.980Z,2.80
2023-08-06T00:32:35.707Z,3.00
2023-08-06T00:37:44.030Z,2.70
2023-08-06T00:42:52.465Z,2.30
2023-08-06T00:48:01.306Z,4.50
2023-08-06T00:53:09.796Z,3.20
2023-08-06T00:58:18.372Z,4.00
2023-08-06T01:03:27.601Z,3.10
2023-08-06T01:08:50.389Z,2.90
2023-08-06T01:14:02.887Z,4.70
2023-08-06T01:19:21.699Z,4.50
2023-08-06T01:24:29.751Z,6.10
2023-08-06T01:29:42.726Z,4.80
2023-08-06T01:34:52.060Z,5.20
2023-08-06T01:40:00.446Z,4.70
2023-08-06T01:45:10.393Z,4.70
2023-08-06T01:50:18.957Z,3.90
2023-08-06T01:55:27.545Z,5.40
2023-08-06T02:00:35.395Z,4.70
2023-08-06T02:05:44.584Z,4.40
2023-08-06T02:10:52.697Z,4.80
2023-08-06T02:16:00.908Z,4.50
2023-08-06T02:21:09.040Z,3.80
2023-08-06T02:26:17.387Z,3.90
2023-08-06T02:31:25.391Z,6.60
2023-08-06T02:36:33.258Z,4.90
2023-08-06T02:41:41.234Z,4.30
2023-08-06T02:46:49.427Z,3.50
2023-08-06T02:51:58.431Z,2.10
2023-08-06T02:57:07.532Z,3.70
2023-08-06T03:02:16.655Z,2.90
2023-08-06T03:07:37.787Z,3.30
2023-08-06T03:12:53.553Z,3.40
2023-08-06T03:18:03.635Z,2.90
2023-08-06T03:23:12.316Z,4.90
2023-08-06T03:28:21.099Z,3.20
2023-08-06T03:33:30.030Z,2.90
2023-08-06T03:38:41.180Z,4.30
2023-08-06T03:43:50.458Z,3.50
2023-08-06T03:49:04.541Z,4.00
2023-08-06T03:54:13.029Z,3.90
2023-08-06T03:59:21.644Z,4.90
2023-08-06T04:04:30.988Z,5.00
2023-08-06T04:09:55.108Z,5.30
2023-08-06T04:15:04.434Z,5.70
2023-08-06T04:20:14.244Z,7.20
2023-08-06T04:25:22.742Z,5.10
2023-08-06T04:30:31.845Z,5.00
2023-08-06T04:35:41.304Z,5.70
2023-08-06T04:40:49.933Z,6.50
2023-08-06T04:46:00.313Z,6.00
2023-08-06T04:51:08.625Z,5.70
2023-08-06T04:56:17.058Z,8.30
2023-08-06T05:01:25.032Z,9.80
2023-08-06T05:06:33.993Z,7.60
2023-08-06T05:11:41.876Z,7.50
2023-08-06T05:16:49.378Z,7.40
2023-08-06T05:21:57.074Z,12.20
2023-08-06T05:27:04.862Z,11.10
2023-08-06T05:32:12.873Z,14.60
2023-08-06T05:37:20.502Z,10.90
2023-08-06T05:42:27.964Z,12.00
2023-08-06T05:47:35.726Z,11.20
2023-08-06T05:52:43.634Z,12.60
2023-08-06T05:57:51.172Z,14.90
2023-08-06T06:02:58.737Z,17.40
2023-08-06T06:08:06.364Z,18.90
2023-08-06T06:13:13.709Z,17.40
2023-08-06T06:18:21.486Z,21.50
2023-08-06T06:23:28.997Z,23.90
2023-08-06T06:28:36.844Z,20.00
2023-08-06T06:33:44.370Z,23.20
2023-08-06T06:38:51.807Z,21.50
2023-08-06T06:44:00.530Z,21.80
2023-08-06T06:49:08.169Z,22.10
2023-08-06T06:54:15.908Z,21.30
2023-08-06T06:59:23.202Z,21.90
2023-08-06T07:04:30.775Z,22.80
2023-08-06T07:09:38.303Z,19.20
2023-08-06T07:14:45.703Z,22.90
2023-08-06T07:19:53.585Z,19.20
2023-08-06T07:25:01.061Z,21.10
2023-08-06T07:30:10.188Z,18.20
2023-08-06T07:35:18.759Z,21.60
2023-08-06T07:40:26.183Z,25.90
2023-08-06T07:45:38.649Z,18.10
2023-08-06T07:50:51.975Z,17.90
2023-08-06T07:56:00.954Z,17.10
2023-08-06T08:01:08.829Z,19.10
2023-08-06T08:12:49.245Z,18.10
2023-08-06T08:23:03.154Z,19.20
2023-08-06T08:28:10.929Z,18.10
2023-08-06T08:33:18.336Z,19.70
2023-08-06T08:38:26.071Z,15.90
2023-08-06T08:43:34.680Z,20.80
2023-08-06T08:48:42.748Z,15.60
2023-08-06T08:53:53.450Z,18.50
2023-08-06T08:59:01.363Z,19.10
2023-08-06T09:04:10.668Z,19.10
2023-08-06T09:09:28.566Z,15.40
2023-08-06T09:14:35.972Z,17.60
2023-08-06T09:19:49.632Z,16.50
2023-08-06T09:24:58.801Z,14.10
2023-08-06T09:30:08.460Z,14.70
2023-08-06T09:35:20.537Z,17.60
2023-08-06T09:40:32.701Z,12.70
2023-08-06T09:45:41.052Z,17.00
2023-08-06T09:50:50.387Z,16.50
2023-08-06T09:55:59.189Z,14.60
2023-08-06T10:01:07.374Z,16.10
2023-08-06T10:06:15.040Z,16.90
2023-08-06T10:11:24.756Z,16.20
2023-08-06T10:16:33.903Z,14.90
2023-08-06T10:21:43.251Z,17.80
2023-08-06T10:26:50.725Z,16.40
2023-08-06T10:32:04.112Z,13.30
2023-08-06T10:37:14.758Z,16.50
2023-08-06T10:47:43.809Z,30.30
2023-08-06T10:52:52.663Z,51.40
2023-08-06T10:58:00.861Z,21.50
2023-08-06T11:03:08.959Z,13.70
2023-08-06T11:08:26.034Z,16.40
2023-08-06T11:13:34.562Z,13.00
2023-08-06T11:18:42.791Z,13.70
2023-08-06T11:23:50.538Z,16.10
2023-08-06T11:28:58.001Z,13.40
2023-08-06T11:34:05.494Z,12.70
2023-08-06T11:39:14.094Z,14.60
2023-08-06T11:44:26.897Z,15.50
2023-08-06T11:49:51.024Z,17.90
2023-08-06T11:55:09.764Z,12.70
2023-08-06T12:00:21.227Z,15.50
2023-08-06T12:05:32.777Z,10.80
2023-08-06T12:10:40.787Z,12.30
2023-08-06T12:15:49.832Z,11.90
2023-08-06T12:20:58.139Z,14.90
2023-08-06T12:26:05.691Z,17.10
2023-08-06T12:31:13.106Z,14.70
2023-08-06T12:36:20.546Z,24.30
2023-08-06T12:41:28.096Z,14.50
2023-08-06T12:46:36.201Z,20.20
2023-08-06T12:51:43.661Z,15.60
2023-08-06T12:56:52.028Z,17.90
2023-08-06T13:01:59.412Z,22.30
2023-08-06T13:07:07.995Z,23.70
2023-08-06T13:12:15.394Z,18.60
2023-08-06T13:17:22.945Z,21.60
2023-08-06T13:22:30.866Z,21.60
2023-08-06T13:27:38.623Z,19.50
2023-08-06T13:32:46.690Z,24.90
2023-08-06T13:37:55.823Z,21.80
2023-08-06T13:43:03.719Z,18.10
2023-08-06T13:48:11.992Z,15.60
2023-08-06T13:53:19.540Z,16.40
2023-08-06T13:58:27.627Z,14.60
2023-08-06T14:03:35.295Z,15.50
2023-08-06T14:08:42.957Z,13.10
2023-08-06T14:13:50.471Z,14.10
2023-08-06T14:18:58.105Z,16.30
2023-08-06T14:24:06.145Z,15.80
2023-08-06T14:29:15.206Z,16.50
2023-08-06T14:34:22.585Z,18.20
2023-08-06T14:39:30.203Z,16.40
2023-08-06T14:44:37.607Z,14.20
2023-08-06T14:49:46.313Z,16.80
2023-08-06T14:54:57.035Z,13.80
2023-08-06T15:00:04.736Z,18.90
2023-08-06T15:05:12.832Z,17.90
2023-08-06T15:10:27.406Z,13.40
2023-08-06T15:15:35.744Z,17.60
2023-08-06T15:20:43.444Z,18.70
2023-08-06T15:25:51.181Z,11.90
2023-08-06T15:31:26.502Z,14.60
2023-08-06T16:10:59.868Z,18.40
2023-08-06T16:16:08.344Z,20.70
2023-08-06T16:41:34.013Z,11.90
2023-08-06T16:46:41.931Z,12.00
2023-08-06T16:51:49.500Z,11.30
2023-08-06T16:56:58.126Z,10.70
2023-08-06T17:02:06.618Z,21.60
2023-08-06T17:07:14.189Z,11.30
2023-08-06T17:12:22.550Z,13.50
2023-08-06T17:17:29.997Z,12.10
2023-08-06T17:22:38.537Z,13.20
2023-08-06T17:27:46.043Z,14.10
2023-08-06T17:32:53.726Z,14.40
2023-08-06T17:38:01.250Z,15.00
2023-08-06T17:43:09.407Z,15.40
2023-08-06T17:48:17.686Z,16.10
2023-08-06T17:53:26.019Z,15.80
2023-08-06T17:58:33.597Z,20.20
2023-08-06T18:03:41.087Z,17.80
2023-08-06T18:08:48.696Z,96.50
2023-08-06T18:13:56.192Z,93.30
2023-08-06T18:19:03.568Z,27.70
2023-08-06T18:24:10.915Z,51.80
2023-08-06T18:29:18.273Z,26.70
2023-08-06T18:34:25.716Z,16.50
2023-08-06T18:39:33.253Z,13.40
2023-08-06T18:44:40.934Z,14.90
2023-08-06T18:49:48.321Z,12.80
2023-08-06T18:54:57.355Z,11.70
2023-08-06T19:00:06.144Z,13.60
2023-08-06T19:05:14.568Z,15.50
2023-08-06T19:10:25.444Z,14.10
2023-08-06T19:15:32.855Z,11.70
2023-08-06T19:20:43.781Z,12.30
2023-08-06T19:25:51.272Z,12.60
2023-08-06T19:31:01.149Z,11.90
2023-08-06T19:36:09.046Z,15.00
2023-08-06T19:41:16.667Z,12.00
2023-08-06T19:46:24.627Z,9.60
2023-08-06T19:51:32.107Z,8.60
2023-08-06T19:56:39.667Z,7.20
2023-08-06T20:01:50.190Z,9.50
2023-08-06T20:06:58.590Z,16.90
2023-08-06T20:12:06.316Z,13.10
2023-08-06T20:17:13.847Z,15.20
2023-08-06T20:22:21.812Z,9.40
2023-08-06T20:27:29.487Z,8.30
2023-08-06T20:32:36.946Z,8.80
2023-08-06T20:37:44.863Z,7.70
2023-08-06T20:42:52.476Z,8.60
2023-08-06T20:48:00.740Z,6.60
2023-08-06T20:53:08.648Z,9.20
2023-08-06T20:58:16.175Z,8.00
2023-08-06T21:03:23.602Z,8.60
2023-08-06T21:08:31.480Z,6.90
2023-08-06T21:13:39.068Z,7.40
2023-08-06T21:18:46.613Z,7.10
2023-08-06T21:23:54.707Z,7.00
2023-08-06T21:29:02.272Z,6.20
2023-08-06T21:34:10.040Z,4.50
2023-08-06T21:39:17.843Z,9.30
2023-08-06T21:44:25.789Z,4.50
2023-08-06T21:49:33.562Z,5.60
2023-08-06T21:54:41.330Z,3.20
2023-08-06T21:59:49.421Z,7.20
2023-08-06T22:04:56.634Z,3.60
2023-08-06T22:10:04.524Z,2.90
2023-08-06T22:15:13.780Z,4.10
2023-08-06T22:20:22.368Z,5.20
2023-08-06T22:25:30.914Z,2.60
2023-08-06T22:30:38.898Z,4.00
2023-08-06T22:35:46.776Z,3.50
2023-08-06T22:40:54.162Z,3.10
2023-08-06T22:46:01.895Z,2.10
2023-08-06T22:51:09.851Z,2.50
2023-08-06T22:56:17.509Z,2.80
2023-08-06T23:01:24.952Z,3.10
2023-08-06T23:06:32.573Z,2.80
2023-08-06T23:11:40.084Z,4.20
2023-08-06T23:16:47.840Z,2.50
2023-08-06T23:21:55.817Z,3.10
2023-08-06T23:27:03.997Z,4.50
2023-08-06T23:32:12.587Z,4.30
2023-08-06T23:37:20.197Z,4.90
2023-08-06T23:42:27.962Z,5.20
2023-08-06T23:47:35.684Z,3.30
2023-08-06T23:52:43.979Z,4.30
2023-08-06T23:57:51.802Z,5.40
